• Join FlightAware (Why Join?)
  • Login
  • US Flag 
02:18AM EDT


 

Airport Tracker/Info


-or-


 

Live Flight TrackerFlight Track Log ✈ UAL33 ✈ 11-Jun-2013 ✈ KIAH - KORD

Flight Track Log - Related Links

Times and Time Zones

All times are in EDT time to prevent confusion due to time zone crossing. See the UAL33 flight status page for this flight to view local times or setup timezone preferences in your user account.

Time Position Orientation Groundspeed Altitude Reporting Facility
EDT Latitude Longitude Course Direction KTS MPH feet Rate Location/Type
05:32PM 29.9448 -95.3467 167° South 182 209 1,500  Level FlightAware ADS-B
05:32PM 29.9426 -95.3484 214° Southwest 188 216 1,600 1,500 Climbing FlightAware ADS-B
05:32PM 29.9396 -95.3520 226° Southwest 197 227 1,700 1,980 Climbing FlightAware ADS-B
05:32PM 29.9376 -95.3556 237° Southwest 201 231 1,900 2,220 Climbing FlightAware ADS-B
05:32PM 29.9360 -95.3598 246° West 207 238 2,000 720 Climbing FlightAware ADS-B
05:32PM 29.9352 -95.3632 255° West 218 251 2,000 720 Level FlightAware ADS-B
05:33PM 29.9347 -95.3687 264° West 227 261 2,100 2,220 Climbing FlightAware ADS-B
05:33PM 29.9349 -95.3737 273° West 232 267 2,300 2,220 Climbing FlightAware ADS-B
05:33PM 29.9357 -95.3784 281° West 238 274 2,400 2,220 Climbing FlightAware ADS-B
05:33PM 29.9374 -95.3841 289° West 246 283 2,600 1,800 Climbing FlightAware ADS-B
05:33PM 29.9403 -95.3902 299° West 256 295 2,700 1,800 Climbing FlightAware ADS-B
05:33PM 29.9438 -95.3952 309° West 262 302 2,900 2,220 Climbing FlightAware ADS-B
05:33PM 29.9468 -95.3986 316° Northwest 268 308 3,000 1,980 Climbing FlightAware ADS-B
05:33PM 29.9519 -95.4028 324° Northwest 274 315 3,200 2,220 Climbing FlightAware ADS-B
05:33PM 29.9560 -95.4054 331° Northwest 279 321 3,300 1,680 Climbing FlightAware ADS-B
05:33PM 29.9600 -95.4075 336° Northwest 280 322 3,400 1,980 Climbing FlightAware ADS-B
05:33PM 29.9661 -95.4094 345° North 283 326 3,600 2,220 Climbing FlightAware ADS-B
05:33PM 29.9705 -95.4105 348° North 285 328 3,700 1,320 Climbing FlightAware ADS-B
05:33PM 29.9781 -95.4119 351° North 286 329 3,800 480 Climbing FlightAware ADS-B
05:34PM 30.0002 -95.4151 353° North 287 330 3,900 1,320 Climbing FlightAware ADS-B
05:35PM 30.1042 -95.4297 353° North 299 344 5,900 2,100 Climbing FlightAware ADS-B
05:36PM 30.1552 -95.4368 353° North 305 351 8,000 3,420 Climbing FlightAware ADS-B
05:36PM 30.1691 -95.4373 360° North 306 352 8,600 3,300 Climbing FlightAware ADS-B
05:36PM 30.2030 -95.4353 North 310 357 9,900 2,220 Climbing FlightAware ADS-B
05:37PM 30.3104 -95.4265 North 385 443 12,000 1,860 Climbing FlightAware ADS-B
05:38PM 30.3791 -95.4226 North 425 489 13,100 2,100 Climbing FlightAware ADS-B
05:39PM 30.5109 -95.4180 North 464 534 15,500 2,460 Climbing FlightAware ADS-B
05:39PM 30.5773 -95.4165 North 470 541 17,000 2,580 Climbing FlightAware ADS-B
05:40PM 30.6353 -95.4270 343° North 483 556 18,000 2,460 Climbing FlightAware ADS-B
05:40PM 30.6508 -95.4339 339° North 485 558 18,400 2,820 Climbing FlightAware ADS-B
05:40PM 30.6741 -95.4488 331° Northwest 489 563 18,900 2,760 Climbing FlightAware ADS-B
05:42PM 30.8870 -95.6905 315° West 497 572 25,000 2,940 Climbing FlightAware ADS-B
05:43PM 30.9810 -95.8003 315° West 478 550 28,400 3,000 Climbing FlightAware ADS-B
05:44PM 31.0283 -95.8553 315° West 474 545 29,600 2,040 Climbing FlightAware ADS-B
05:44PM 31.0762 -95.9117 315° West 482 555 30,500 1,260 Climbing FlightAware ADS-B
05:45PM 31.1025 -95.9398 321° Northwest 492 566 30,600 420 Climbing FlightAware ADS-B
05:45PM 31.1255 -95.9572 327° Northwest 497 572 30,700 660 Climbing FlightAware ADS-B
05:45PM 31.1897 -95.9837 346° North 509 586 31,100 1,200 Climbing FlightAware ADS-B
05:46PM 31.2605 -95.9998 349° North 513 590 31,900 1,500 Climbing FlightAware ADS-B
05:48PM 31.6306 -96.0868 349° North 511 588 35,900 1,440 Climbing FlightAware ADS-B
05:50PM 31.8830 -96.1461 349° North 501 577 38,500 1,020 Climbing FlightAware ADS-B
05:52PM 32.0466 -96.1849 349° North 496 571 39,000 180 Climbing FlightAware ADS-B
05:52PM 32.1778 -96.2138 351° North 494 568 39,000  Level FlightAware ADS-B
05:54PM 32.3500 -96.2200 359° North 493 567 39,000  Level FlightAware ADS-B
05:54PM 32.4120 -96.2210 359° North 492 566 39,000  Level FlightAware
05:55PM 32.5040 -96.2220 359° North 492 566 39,000  Level FlightAware
05:56PM 32.6130 -96.2230 360° North 494 568 39,000  Level FlightAware
05:56PM 32.7090 -96.2240 359° North 494 568 39,000  Level FlightAware
05:58PM 32.8930 -96.2260 360° North 492 566 39,000  Level FlightAware
05:58PM 32.9890 -96.2270 359° North 494 568 39,000  Level FlightAware
05:59PM 33.0900 -96.2290 359° North 495 570 39,000  Level FlightAware
06:00PM 33.1830 -96.2300 359° North 495 570 39,000  Level FlightAware
06:01PM 33.2880 -96.2310 360° North 495 570 39,000  Level FlightAware
06:01PM 33.3810 -96.2320 359° North 495 570 39,000  Level FlightAware
06:02PM 33.4710 -96.2330 359° North 492 566 39,000  Level FlightAware
06:02PM 33.5390 -96.2240 North 496 571 39,000  Level FlightAware
06:03PM 33.6250 -96.1740 26° Northeast 503 579 39,000  Level FlightAware
06:04PM 33.7050 -96.1160 31° Northeast 501 577 39,000  Level FlightAware
06:05PM 33.7910 -96.0540 31° Northeast 500 575 39,000  Level FlightAware
06:05PM 33.8770 -95.9920 31° Northeast 499 574 39,000  Level FlightAware
06:06PM 33.9600 -95.9310 31° Northeast 500 575 39,000  Level FlightAware
06:07PM 34.0610 -95.8580 31° Northeast 499 574 39,000  Level FlightAware
06:07PM 34.1460 -95.7960 31° Northeast 499 574 39,000  Level FlightAware
06:08PM 34.2330 -95.7320 31° Northeast 498 573 39,000  Level FlightAware
06:09PM 34.3140 -95.6730 31° Northeast 498 573 39,000  Level FlightAware
06:10PM 34.4030 -95.6070 31° Northeast 494 568 39,000  Level FlightAware
06:10PM 34.4950 -95.5400 31° Northeast 492 566 39,000  Level FlightAware
06:11PM 34.5670 -95.4860 32° Northeast 488 562 39,000  Level FlightAware
06:12PM 34.6640 -95.4150 31° Northeast 484 557 39,000  Level FlightAware
06:13PM 34.7510 -95.3500 32° Northeast 484 557 39,000  Level FlightAware
06:13PM 34.8310 -95.2900 32° Northeast 483 556 39,000  Level FlightAware
06:14PM 34.9080 -95.2320 32° Northeast 484 557 39,000  Level FlightAware
06:15PM 34.9810 -95.1790 31° Northeast 484 557 39,000  Level FlightAware
06:15PM 35.0380 -95.1370 31° Northeast 484 557 39,000  Level FlightAware
06:16PM 35.1470 -95.0530 32° Northeast 487 560 39,000  Level FlightAware
06:17PM 35.2320 -94.9890 32° Northeast 486 559 39,000  Level FlightAware
06:18PM 35.3080 -94.9310 32° Northeast 487 560 39,000  Level FlightAware
06:18PM 35.3970 -94.8640 32° Northeast 487 560 39,000  Level FlightAware
06:19PM 35.4750 -94.8060 31° Northeast 488 562 39,000  Level FlightAware
06:20PM 35.5500 -94.7480 32° Northeast 488 562 39,000  Level FlightAware
06:20PM 35.6360 -94.6820 32° Northeast 485 558 39,000  Level FlightAware
06:21PM 35.7120 -94.6240 32° Northeast 484 557 39,000  Level FlightAware
06:22PM 35.7950 -94.5610 32° Northeast 484 557 39,000  Level FlightAware
06:22PM 35.8750 -94.4990 32° Northeast 485 558 39,000  Level FlightAware
06:23PM 35.9540 -94.4380 32° Northeast 486 559 39,000  Level FlightAware
06:24PM 36.0300 -94.3800 32° Northeast 486 559 39,000  Level FlightAware
06:25PM 36.1120 -94.3170 32° Northeast 486 559 39,000  Level FlightAware
06:25PM 36.2170 -94.2350 32° Northeast 486 559 39,000  Level FlightAware
06:26PM 36.3050 -94.1670 32° Northeast 485 558 39,000  Level FlightAware
06:27PM 36.3800 -94.1080 32° Northeast 484 557 39,000  Level FlightAware
06:28PM 36.4650 -94.0420 32° Northeast 484 557 39,000  Level FlightAware
06:28PM 36.5410 -93.9820 32° Northeast 485 558 39,000  Level FlightAware
06:29PM 36.6190 -93.9210 32° Northeast 485 558 39,000  Level FlightAware
06:30PM 36.6890 -93.8660 32° Northeast 484 557 39,000  Level FlightAware
06:30PM 36.7790 -93.7950 32° Northeast 483 556 39,000  Level FlightAware
06:31PM 36.8540 -93.7350 33° Northeast 483 556 39,000  Level FlightAware
06:32PM 36.9160 -93.6860 32° Northeast 483 556 39,000  Level FlightAware
06:32PM 36.9950 -93.6230 32° Northeast 484 557 39,000  Level FlightAware
06:33PM 37.0750 -93.5590 33° Northeast 486 559 39,000  Level FlightAware
06:34PM 37.1450 -93.5030 33° Northeast 489 563 39,000  Level FlightAware
06:34PM 37.2340 -93.4320 32° Northeast 490 564 39,000  Level FlightAware
06:35PM 37.3110 -93.3700 33° Northeast 490 564 39,000  Level FlightAware
06:36PM 37.3940 -93.2990 34° Northeast 489 563 39,000  Level FlightAware
06:36PM 37.4690 -93.2290 37° Northeast 492 566 39,000  Level FlightAware
06:37PM 37.5470 -93.1580 36° Northeast 494 568 39,000  Level FlightAware
06:38PM 37.6070 -93.1020 36° Northeast 497 572 39,000  Level FlightAware
06:39PM 37.6960 -93.0190 36° Northeast 499 574 39,000  Level FlightAware
06:39PM 37.7760 -92.9450 36° Northeast 501 577 39,000  Level FlightAware
06:40PM 37.8550 -92.8710 36° Northeast 503 579 39,000  Level FlightAware
06:41PM 37.9370 -92.7940 37° Northeast 503 579 39,000  Level FlightAware
06:41PM 38.0150 -92.7220 36° Northeast 501 577 39,000  Level FlightAware
06:42PM 38.0860 -92.6540 37° Northeast 496 571 39,000  Level FlightAware
06:43PM 38.1920 -92.5550 36° Northeast 495 570 39,000  Level FlightAware
06:44PM 38.2630 -92.4870 37° Northeast 498 573 39,000  Level FlightAware
06:44PM 38.3410 -92.4150 36° Northeast 499 574 39,000  Level FlightAware
06:45PM 38.4280 -92.3300 37° Northeast 505 581 39,000  Level FlightAware
06:46PM 38.4890 -92.2740 36° Northeast 505 581 39,000  Level FlightAware
06:47PM 38.5660 -92.2020 36° Northeast 505 581 39,000  Level FlightAware
06:47PM 38.6270 -92.1450 36° Northeast 505 581 39,000  Level FlightAware
06:48PM 38.6900 -92.0870 36° Northeast 505 581 39,000  Level FlightAware
06:49PM 38.7630 -92.0180 36° Northeast 505 581 39,000  Level FlightAware
06:49PM 38.8930 -91.8830 39° Northeast 509 586 39,000  Level FlightAware
06:50PM 38.9720 -91.8060 37° Northeast 511 588 39,000  Level FlightAware
06:51PM 39.0580 -91.7220 37° Northeast 511 588 39,000  Level FlightAware
06:51PM 39.1360 -91.6460 37° Northeast 511 588 39,000  Level FlightAware
06:52PM 39.2090 -91.5750 37° Northeast 510 587 39,000  Level FlightAware
06:53PM 39.2870 -91.4980 37° Northeast 505 581 39,000  Level FlightAware
06:54PM 39.3960 -91.3910 37° Northeast 502 578 39,000  Level FlightAware
06:54PM 39.4720 -91.3160 37° Northeast 497 572 39,000  Level FlightAware
06:55PM 39.5440 -91.2450 37° Northeast 497 572 39,000  Level FlightAware
06:56PM 39.6130 -91.1760 38° Northeast 497 572 39,000  Level FlightAware
06:56PM 39.6980 -91.0900 38° Northeast 498 573 39,000  Level FlightAware
06:57PM 39.7810 -91.0070 38° Northeast 498 573 39,000  Level FlightAware
06:58PM 39.8550 -90.9330 38° Northeast 496 571 39,000  Level FlightAware
06:59PM 39.9220 -90.8650 38° Northeast 496 571 39,000  Level FlightAware
06:59PM 40.0000 -90.7890 37° Northeast 496 571 39,000 -1,080 Level FlightAware
07:00PM 40.0890 -90.6970 38° Northeast 494 568 37,400 -2,520 Descending FlightAware
07:01PM 40.1600 -90.6250 38° Northeast 502 578 35,600 -3,000 Descending FlightAware
07:01PM 40.2360 -90.5470 38° Northeast 516 594 33,300 -2,940 Descending FlightAware
07:02PM 40.3090 -90.4730 38° Northeast 523 602 31,800 -2,460 Descending FlightAware
07:03PM 40.4010 -90.3780 38° Northeast 534 615 29,900 -1,680 Descending FlightAware
07:04PM 40.4820 -90.2960 38° Northeast 506 582 29,300 -1,680 Descending FlightAware
07:04PM 40.5530 -90.2210 39° Northeast 438 504 27,600 -1,740 Descending FlightAware
07:05PM 40.6290 -90.1450 37° Northeast 406 467 26,700 -900 Descending FlightAware
07:06PM 40.7020 -90.1120 19° North 384 442 26,300 -540 Descending FlightAware
07:06PM 40.7710 -90.1220 354° North 356 410 26,000 -840 Descending FlightAware
07:07PM 40.8340 -90.1330 352° North 354 407 25,200 -1,260 Descending FlightAware
07:08PM 40.8980 -90.1420 354° North 351 404 24,400 -1,140 Descending FlightAware
07:08PM 40.9290 -90.1340 11° North 357 411 24,100 -780 Descending FlightAware
07:08PM 40.9460 -90.1230 26° Northeast 368 423 24,000 -240 Descending FlightAware
07:09PM 40.9660 -90.0980 43° Northeast 378 435 24,000  Level FlightAware
07:09PM 40.9980 -90.0170 62° Northeast 384 442 24,000  Level FlightAware
07:10PM 41.0360 -89.9190 63° Northeast 434 499 24,000  Level FlightAware
07:11PM 41.0690 -89.8300 64° Northeast 451 519 24,000  Level FlightAware
07:11PM 41.1100 -89.7200 64° Northeast 454 522 24,000 -240 Level FlightAware
07:12PM 41.1540 -89.6020 64° Northeast 453 521 23,700 -1,080 Descending FlightAware
07:13PM 41.1920 -89.5050 62° Northeast 444 511 22,500 -1,860 Descending FlightAware
07:13PM 41.2340 -89.4050 61° Northeast 435 501 21,200 -1,920 Descending FlightAware
07:14PM 41.2750 -89.3030 62° Northeast 423 487 19,800 -1,920 Descending FlightAware
07:15PM 41.3080 -89.2210 62° Northeast 417 480 18,700 -1,800 Descending FlightAware
07:16PM 41.3520 -89.1120 62° Northeast 412 474 17,300 -1,920 Descending FlightAware
07:16PM 41.3870 -89.0240 62° Northeast 409 471 15,900 -2,100 Descending FlightAware
07:17PM 41.4240 -88.9310 62° Northeast 401 461 14,500 -1,800 Descending FlightAware
07:18PM 41.4550 -88.8540 62° Northeast 395 455 13,400 -1,980 Descending FlightAware
07:18PM 41.4970 -88.7460 63° Northeast 390 449 11,700 -1,680 Descending FlightAware
07:19PM 41.5310 -88.6610 62° Northeast 384 442 11,100 -480 Descending FlightAware
07:20PM 41.5660 -88.5710 63° Northeast 384 442 11,100  Level FlightAware
07:20PM 41.6010 -88.4860 61° Northeast 380 437 11,100  Level FlightAware
07:21PM 41.6410 -88.4120 54° Northeast 371 427 11,100  Level FlightAware
07:22PM 41.6870 -88.3330 52° Northeast 366 421 11,100 -600 Level FlightAware
07:23PM 41.7320 -88.2560 52° Northeast 341 392 10,300 -660 Descending FlightAware
07:23PM 41.7670 -88.1950 52° Northeast 295 339 10,200 -480 Descending FlightAware
07:24PM 41.7900 -88.1560 52° Northeast 287 330 9,800 -1,020 Descending FlightAware
07:24PM 41.8020 -88.1350 53° Northeast 283 326 9,500 -1,200 Descending FlightAware
07:24PM 41.8250 -88.0970 51° Northeast 282 325 9,000 -1,140 Descending FlightAware
07:25PM 41.8370 -88.0740 55° Northeast 282 325 8,700 -1,080 Descending FlightAware
07:25PM 41.8590 -88.0350 53° Northeast 279 321 8,200 -1,080 Descending FlightAware
07:25PM 41.8670 -88.0200 54° Northeast 279 321 8,000 -600 Descending FlightAware
07:26PM 41.8830 -87.9750 64° Northeast 280 322 7,800 -480 Descending FlightAware
07:26PM 41.8840 -87.9060 89° East 278 320 7,500 -420 Descending FlightAware
07:27PM 41.8840 -87.8690 90° East 264 304 7,400 -420 Descending FlightAware
07:27PM 41.8840 -87.8320 90° East 252 290 7,200 -540 Descending FlightAware
07:28PM 41.8840 -87.7890 90° East 251 289 7,000 -720 Descending FlightAware
07:28PM 41.8840 -87.7760 90° East 251 289 6,800 -1,260 Descending FlightAware
07:28PM 41.8840 -87.7280 90° East 254 292 6,200 -1,200 Descending FlightAware
07:29PM 41.8840 -87.7060 90° East 256 295 5,900 -960 Descending FlightAware
07:29PM 41.8900 -87.6620 80° East 230 265 5,500 -900 Descending FlightAware
07:29PM 41.8990 -87.6510 42° Northeast 212 244 5,300 -1,020 Descending FlightAware
07:29PM 41.9110 -87.6470 14° North 198 228 5,100 -900 Descending FlightAware
07:30PM 41.9570 -87.6620 346° North 179 206 4,300 -960 Descending FlightAware
07:31PM 41.9730 -87.6760 327° Northwest 169 194 3,800 -1,200 Descending FlightAware
07:31PM 41.9680 -87.7090 258° West 164 189 3,200 -1,080 Descending FlightAware
07:32PM 41.9690 -87.7240 275° West 165 190 3,000 -720 Descending FlightAware
07:32PM 41.9690 -87.7480 270° West 161 185 2,700 -960 Descending FlightAware
07:33PM 41.9700 -87.7730 273° West 149 171 2,200 -960 Descending FlightAware
07:33PM 41.9690 -87.8010 267° West 142 163 1,900 -720 Descending FlightAware
07:33PM 41.9690 -87.8130 270° West 143 165 1,700 -720 Descending FlightAware
07:34PM 41.9690 -87.8390 270° West 143 165 1,400 -660 Descending FlightAware
07:34PM 41.9690 -87.8540 270° West 142 163 1,200 -720 Descending FlightAware
07:34PM 41.9690 -87.8760 270° West 143 165 900 -720 Descending FlightAware